NEOK1: Neosho R at Neosho Rapids, KS

                                SHEF ID:       NEOK1     NEOSHO R AT NEOSHO RAPIDS, KS
STATION TYPE:

STAGE RIV-FLOW BAT-LOAD
ft cfs volt
Ccp-Rev Ccp-Rev Ccp-Rev
(America/Chicago)
03/01 00:00 6.89 3446 12.41
03/01 01:00 6.90 3453 12.38
03/01 02:00 6.87 3432 12.36
03/01 03:00 6.83 3404 12.33
03/01 04:00 6.83 3404 12.31
03/01 05:00 6.80 3383 12.29
03/01 06:00 6.79 3376 12.27
03/01 07:00 6.78 3369 12.25
03/01 08:00 6.77 3362 12.30
03/01 09:00 6.74 3342 12.63
03/01 10:00 6.75 3349 13.05
03/01 11:00 6.72 3328 13.19
03/01 12:00 6.70 3314 12.74
03/01 13:00 6.69 3307 12.72
03/01 14:00 6.71 3321 12.55
03/01 15:00 6.75 3349 12.47
03/01 16:00 6.76 3355 12.40
03/01 17:00 6.76 3355 12.32
03/01 18:00 6.79 3376 12.25
03/01 19:00 6.81 3390 12.21
03/01 20:00 6.85 3418 12.20
03/01 21:00 6.96 3495 12.20
03/01 22:00 7.08 3579 12.19
03/01 23:00 7.19 3657 12.19
Data processed at Mon 02Mar2026 05:36 GMT

NOTICE: If you are parsing this page

Please convert to using our Data API. Starting early 2026 we will be migrating to: https://water.usace.army.mil with modern pages rendered in JavaScript. When this migration completes you will no longer be able to scrape this page! CWMSDataAPI (CDA)

Timeseries IDs (TSIDs)

TSIDs used from left to right in the data table
NEOR.Stage.Inst.1Hour.0.Ccp-Rev
NEOR.Flow.Inst.1Hour.0.Ccp-Rev
NEOR.Volt-Battery Load.Inst.1Hour.0.Ccp-Rev

                            

All information presented herein is the property of the government of the United States of America and may be revised or deleted at any time without prior notice. Dissemination of this information without the expressed written consent of the Public Affairs Office, Tulsa District U.S. Army Corps of Engineers is strictly prohibited. These data are gathered electronically and, as presented, have NOT undergone any form of quality control. These data are NOT guaranteed to be valid or correct.